Tutti
Moree Hospital Airport YXEE Meteo
There is no TAF data available at YXEE. Showing TAF data for YMOR (2 mi S).
Previsione area Terminal MRZ (nessun dato per YXEE)
| Date | Time (AEST) | Flight Rules | Wind Dir. | Speed | Type | Height AGL (ft) | Visibility | Remarks | ||||||
|---|---|---|---|---|---|---|---|---|---|---|---|---|---|---|
| 08-mag | 23:00 | VFR | 210° | 8 kt | Clouds and Visibility are OK | >= 6 miles | ||||||||
| 08-mag | 22:00 | VFR | 210° | 8 kt | Clouds and Visibility are OK | >= 6 miles | ||||||||
| 08-mag | 21:00 | VFR | 210° | 8 kt | Clouds and Visibility are OK | >= 6 miles | ||||||||
There is no METAR data available at YXEE. Showing METAR data for YMOR (2 mi S).
Storico METAR MRZ recente (nessun dato per YXEE)
| Date | Time (AEST) | Flight Rules | Wind Dir. | Speed | Type | Height AGL (ft) | Visibility | Temp (°C) | Temp (°F) | Dew Point (°C) | Dew Point (°F) | Rel. Humid. | Pressure | Density Altitude | Remarks |
|---|---|---|---|---|---|---|---|---|---|---|---|---|---|---|---|
| 08-mag | 21:00 | VFR | 220° | 9 kt | 10000 meters | 10° | 50° | 3° | 37° | 62% | 1023 mb | -188 ft | |||
| 08-mag | 20:00 | VFR | 240° | 7 kt | 10000 meters | 11° | 51° | 3° | 37° | 58% | 1023 mb | -68 ft | |||
| 08-mag | 19:00 | VFR | 240° | 7 kt | 10000 meters | 13° | 55° | 4° | 39° | 54% | 1022 mb | 201 ft | |||
| 08-mag | 18:00 | VFR | 220° | 8 kt | 10000 meters | 14° | 57° | 3° | 37° | 47% | 1022 mb | 321 ft | |||
| 08-mag | 17:00 | VFR | 220° | 15 kt | 10000 meters | 17° | 62° | 4° | 39° | 42% | 1021 mb | 711 ft | |||
| 08-mag | 16:00 | VFR | 220° | 16 kt | 10000 meters | 18° | 64° | 4° | 39° | 39% | 1021 mb | 831 ft | |||
| 08-mag | 15:00 | VFR | 210° | 18 kt | 10000 meters | 18° | 64° | 3° | 37° | 37% | 1021 mb | 831 ft | |||
| 08-mag | 14:00 | VFR | 210° | 15 kt | 10000 meters | 18° | 64° | 2° | 35° | 34% | 1021 mb | 831 ft | |||
| 08-mag | 13:00 | VFR | 220° | 18 kt | 10000 meters | 17° | 62° | 3° | 37° | 39% | 1022 mb | 681 ft | |||
| 08-mag | 12:00 | VFR | 210° | 19 kt | 10000 meters | 17° | 62° | 3° | 37° | 39% | 1023 mb | 652 ft | |||
| 08-mag | 11:00 | VFR | 200° | 17 kt | 10000 meters | 15° | 59° | 3° | 37° | 44% | 1023 mb | 412 ft | |||
| 08-mag | 10:00 | VFR | 200° | 19 kt | 10000 meters | 13° | 55° | 3° | 37° | 51% | 1024 mb | 142 ft | |||
| 08-mag | 09:00 | VFR | 210° | 15 kt | 10000 meters | 11° | 51° | 2° | 35° | 54% | 1025 mb | -127 ft | |||
| 08-mag | 08:00 | VFR | 230° | 11 kt | 10000 meters | 7° | 44° | 0° | 32° | 61% | 1025 mb | -607 ft | |||
| 08-mag | 07:00 | VFR | 250° | 7 kt | 10000 meters | 3° | 37° | -1° | 30° | 75% | 1024 mb | -1.058 ft | |||
| 08-mag | 06:00 | VFR | 260° | 6 kt | 10000 meters | 3° | 37° | -1° | 30° | 75% | 1024 mb | -1.058 ft | |||
| 08-mag | 05:00 | VFR | 250° | 7 kt | 10000 meters | 3° | 37° | -1° | 30° | 75% | 1024 mb | -1.058 ft | |||
| 08-mag | 04:00 | VFR | 240° | 3 kt | 10000 meters | 3° | 37° | -1° | 30° | 75% | 1024 mb | -1.058 ft | |||
| 08-mag | 03:00 | VFR | 230° | 5 kt | 10000 meters | 4° | 39° | -1° | 30° | 70% | 1024 mb | -938 ft | |||
| 08-mag | 02:00 | VFR | 190° | 8 kt | 10000 meters | 5° | 41° | -1° | 30° | 65% | 1023 mb | -788 ft | |||
| 08-mag | 01:00 | VFR | 180° | 7 kt | 10000 meters | 4° | 39° | -1° | 30° | 70% | 1023 mb | -908 ft | |||
| 08-mag | 00:00 | VFR | 190° | 11 kt | 10000 meters | 7° | 44° | -1° | 30° | 57% | 1023 mb | -548 ft | |||
| 07-mag | 23:00 | VFR | 210° | 9 kt | 10000 meters | 6° | 42° | -1° | 30° | 61% | 1023 mb | -668 ft | |||
| 07-mag | 22:00 | VFR | 220° | 8 kt | 10000 meters | 7° | 44° | -2° | 28° | 53% | 1023 mb | -548 ft |
Accedi
| Il tuo browser non è supportato. fai l'upgrade del tuo browser |
